The Hangar Logo

METARs in Plain English
Latest METAR information for EGVN - BRIZE NORTON

EGVN 260150Z 35008KT 9999 SCT006 SCT009 BKN050 07/06 Q1006 YLO1 BECMG FEW006 GRN

In plain english is....

This is a METAR report for EGVN - BRIZE NORTON .
The report was made 56 minutes ago, at 01:50 UTC.
The wind was blowing at a speed of 8 knots (9.2 miles per hour, 4.1 metres per second) from the North (350°).
The visibility was greater than 6.2 miles (greater than 10 kilometres).
There were scattered clouds at a height of 600 feet (183 metres), scattered clouds at a height of 900 feet (274 metres) and broken clouds at a height of 5000 feet (1524 metres).
The temperature was 7°C (45°F), a dew point of 6°C (43°F) and a relative humidity of 93.3%.
The altimeter setting (airfield QNH) was 1,006 hPa (29.71 inHg).
Other remarks YLO1 BECMG FEW006 GRN.

UK Mainland

Ireland

Channel Islands

France

Other



Enter
Tel: 07092 887559 - Fax: 07092 183262

Terms of Use | Privacy Statement
Content copyright © 1999-2012 TheHangar.co.uk. All rights reserved.
Please send your questions, comments, or bug reports to the Webmaster.